sensor_id;sensor_type;location;lat;lon;timestamp;P1;P2;P0
24012;PMS7003;12220;50.194;18.948;2023-04-24T00:00:27;31;26;21
24012;PMS7003;12220;50.194;18.948;2023-04-24T00:02:33;25;23;17
24012;PMS7003;12220;50.194;18.948;2023-04-24T00:04:35;29;25;20
24012;PMS7003;12220;50.194;18.948;2023-04-24T00:06:36;21;21;17
24012;PMS7003;12220;50.194;18.948;2023-04-24T00:08:43;22;22;17
24012;PMS7003;12220;50.194;18.948;2023-04-24T00:10:44;27;25;15
24012;PMS7003;12220;50.194;18.948;2023-04-24T00:12:45;24;23;19
24012;PMS7003;12220;50.194;18.948;2023-04-24T00:14:47;27;26;19
24012;PMS7003;12220;50.194;18.948;2023-04-24T00:16:57;25;24;18
24012;PMS7003;12220;50.194;18.948;2023-04-24T00:18:58;30;30;20
24012;PMS7003;12220;50.194;18.948;2023-04-24T00:21:01;33;26;20
24012;PMS7003;12220;50.194;18.948;2023-04-24T00:23:03;27;26;20
24012;PMS7003;12220;50.194;18.948;2023-04-24T00:25:12;28;26;18
24012;PMS7003;12220;50.194;18.948;2023-04-24T00:27:13;24;23;16
24012;PMS7003;12220;50.194;18.948;2023-04-24T00:29:14;29;27;19
24012;PMS7003;12220;50.194;18.948;2023-04-24T00:31:16;24;21;17
24012;PMS7003;12220;50.194;18.948;2023-04-24T00:33:27;34;29;19
24012;PMS7003;12220;50.194;18.948;2023-04-24T00:35:28;26;23;19
24012;PMS7003;12220;50.194;18.948;2023-04-24T00:37:29;29;23;19
24012;PMS7003;12220;50.194;18.948;2023-04-24T00:39:31;27;24;17
24012;PMS7003;12220;50.194;18.948;2023-04-24T00:41:42;24;22;18
24012;PMS7003;12220;50.194;18.948;2023-04-24T00:43:48;27;26;19
24012;PMS7003;12220;50.194;18.948;2023-04-24T00:45:52;32;28;19
24012;PMS7003;12220;50.194;18.948;2023-04-24T00:47:53;26;26;20
24012;PMS7003;12220;50.194;18.948;2023-04-24T00:49:57;36;31;22
24012;PMS7003;12220;50.194;18.948;2023-04-24T00:51:58;27;25;18
24012;PMS7003;12220;50.194;18.948;2023-04-24T00:54:00;25;24;19
24012;PMS7003;12220;50.194;18.948;2023-04-24T00:56:02;30;25;16
24012;PMS7003;12220;50.194;18.948;2023-04-24T00:58:12;30;25;19
24012;PMS7003;12220;50.194;18.948;2023-04-24T01:00:14;22;20;16
24012;PMS7003;12220;50.194;18.948;2023-04-24T01:02:19;24;21;17
24012;PMS7003;12220;50.194;18.948;2023-04-24T01:04:21;22;22;16
24012;PMS7003;12220;50.194;18.948;2023-04-24T01:06:28;23;22;16
24012;PMS7003;12220;50.194;18.948;2023-04-24T01:08:32;23;23;20
24012;PMS7003;12220;50.194;18.948;2023-04-24T01:10:35;22;21;14
24012;PMS7003;12220;50.194;18.948;2023-04-24T01:12:39;17;17;13
24012;PMS7003;12220;50.194;18.948;2023-04-24T01:14:42;23;21;16
24012;PMS7003;12220;50.194;18.948;2023-04-24T01:16:43;25;23;19
24012;PMS7003;12220;50.194;18.948;2023-04-24T01:18:45;22;22;15
24012;PMS7003;12220;50.194;18.948;2023-04-24T01:20:46;27;21;16
24012;PMS7003;12220;50.194;18.948;2023-04-24T01:22:57;23;23;17
24012;PMS7003;12220;50.194;18.948;2023-04-24T01:24:58;26;26;18
24012;PMS7003;12220;50.194;18.948;2023-04-24T01:27:00;26;26;18
24012;PMS7003;12220;50.194;18.948;2023-04-24T01:29:01;21;19;16
24012;PMS7003;12220;50.194;18.948;2023-04-24T01:31:12;24;24;18
24012;PMS7003;12220;50.194;18.948;2023-04-24T01:33:16;22;19;15
24012;PMS7003;12220;50.194;18.948;2023-04-24T01:35:18;21;21;15
24012;PMS7003;12220;50.194;18.948;2023-04-24T01:37:23;26;23;17
24012;PMS7003;12220;50.194;18.948;2023-04-24T01:39:27;24;23;15
24012;PMS7003;12220;50.194;18.948;2023-04-24T01:41:29;23;23;15
24012;PMS7003;12220;50.194;18.948;2023-04-24T01:43:31;21;21;17
24012;PMS7003;12220;50.194;18.948;2023-04-24T01:45:33;26;24;17
24012;PMS7003;12220;50.194;18.948;2023-04-24T01:47:42;21;20;15
24012;PMS7003;12220;50.194;18.948;2023-04-24T01:49:44;16;15;12
24012;PMS7003;12220;50.194;18.948;2023-04-24T01:51:46;27;25;17
24012;PMS7003;12220;50.194;18.948;2023-04-24T01:53:51;25;21;16
24012;PMS7003;12220;50.194;18.948;2023-04-24T01:55:57;24;24;19
24012;PMS7003;12220;50.194;18.948;2023-04-24T01:57:58;26;22;16
24012;PMS7003;12220;50.194;18.948;2023-04-24T02:00:01;25;22;16
24012;PMS7003;12220;50.194;18.948;2023-04-24T02:02:05;22;22;17
24012;PMS7003;12220;50.194;18.948;2023-04-24T02:04:12;30;26;18
24012;PMS7003;12220;50.194;18.948;2023-04-24T02:06:15;34;29;19
24012;PMS7003;12220;50.194;18.948;2023-04-24T02:08:17;33;30;22
24012;PMS7003;12220;50.194;18.948;2023-04-24T02:10:20;35;30;21
24012;PMS7003;12220;50.194;18.948;2023-04-24T02:12:27;31;30;21
24012;PMS7003;12220;50.194;18.948;2023-04-24T02:14:28;43;34;23
24012;PMS7003;12220;50.194;18.948;2023-04-24T02:16:29;37;32;22
24012;PMS7003;12220;50.194;18.948;2023-04-24T02:18:36;39;31;22
24012;PMS7003;12220;50.194;18.948;2023-04-24T02:20:42;34;31;22
24012;PMS7003;12220;50.194;18.948;2023-04-24T02:22:43;31;28;19
24012;PMS7003;12220;50.194;18.948;2023-04-24T02:24:45;36;32;21
24012;PMS7003;12220;50.194;18.948;2023-04-24T02:26:46;28;26;20
24012;PMS7003;12220;50.194;18.948;2023-04-24T02:28:48;32;30;22
24012;PMS7003;12220;50.194;18.948;2023-04-24T02:30:52;29;29;21
24012;PMS7003;12220;50.194;18.948;2023-04-24T02:32:53;25;22;18
24012;PMS7003;12220;50.194;18.948;2023-04-24T02:34:59;24;19;16
24012;PMS7003;12220;50.194;18.948;2023-04-24T02:37:00;31;25;18
24012;PMS7003;12220;50.194;18.948;2023-04-24T02:39:02;24;24;15
24012;PMS7003;12220;50.194;18.948;2023-04-24T02:41:04;24;22;17
24012;PMS7003;12220;50.194;18.948;2023-04-24T02:43:14;31;25;16
24012;PMS7003;12220;50.194;18.948;2023-04-24T02:45:15;26;24;17
24012;PMS7003;12220;50.194;18.948;2023-04-24T02:47:16;23;20;17
24012;PMS7003;12220;50.194;18.948;2023-04-24T02:49:18;20;20;14
24012;PMS7003;12220;50.194;18.948;2023-04-24T02:51:29;15;15;13
24012;PMS7003;12220;50.194;18.948;2023-04-24T02:53:31;25;24;16
24012;PMS7003;12220;50.194;18.948;2023-04-24T02:55:32;25;25;18
24012;PMS7003;12220;50.194;18.948;2023-04-24T02:57:33;26;22;16
24012;PMS7003;12220;50.194;18.948;2023-04-24T02:59:44;21;20;17
24012;PMS7003;12220;50.194;18.948;2023-04-24T03:01:45;21;19;14
24012;PMS7003;12220;50.194;18.948;2023-04-24T03:03:46;19;17;14
24012;PMS7003;12220;50.194;18.948;2023-04-24T03:05:48;21;14;13
24012;PMS7003;12220;50.194;18.948;2023-04-24T03:07:59;23;22;15
24012;PMS7003;12220;50.194;18.948;2023-04-24T03:10:00;23;17;12
24012;PMS7003;12220;50.194;18.948;2023-04-24T03:12:02;21;19;14
24012;PMS7003;12220;50.194;18.948;2023-04-24T03:14:03;21;19;15
24012;PMS7003;12220;50.194;18.948;2023-04-24T03:16:14;24;21;15
24012;PMS7003;12220;50.194;18.948;2023-04-24T03:18:15;22;19;14
24012;PMS7003;12220;50.194;18.948;2023-04-24T03:20:17;18;18;14
24012;PMS7003;12220;50.194;18.948;2023-04-24T03:22:18;21;17;11
24012;PMS7003;12220;50.194;18.948;2023-04-24T03:24:29;19;19;14
24012;PMS7003;12220;50.194;18.948;2023-04-24T03:26:31;21;19;14
24012;PMS7003;12220;50.194;18.948;2023-04-24T03:28:33;15;15;11
24012;PMS7003;12220;50.194;18.948;2023-04-24T03:30:34;16;16;11
24012;PMS7003;12220;50.194;18.948;2023-04-24T03:32:44;21;17;13
24012;PMS7003;12220;50.194;18.948;2023-04-24T03:34:45;19;14;11
24012;PMS7003;12220;50.194;18.948;2023-04-24T03:36:46;17;17;12
24012;PMS7003;12220;50.194;18.948;2023-04-24T03:38:48;17;16;13
24012;PMS7003;12220;50.194;18.948;2023-04-24T03:40:59;19;16;13
24012;PMS7003;12220;50.194;18.948;2023-04-24T03:43:00;10;10;9
24012;PMS7003;12220;50.194;18.948;2023-04-24T03:45:04;14;13;11
24012;PMS7003;12220;50.194;18.948;2023-04-24T03:47:06;16;14;10
24012;PMS7003;12220;50.194;18.948;2023-04-24T03:49:14;18;17;13
24012;PMS7003;12220;50.194;18.948;2023-04-24T03:51:15;19;18;14
24012;PMS7003;12220;50.194;18.948;2023-04-24T03:53:16;17;17;11
24012;PMS7003;12220;50.194;18.948;2023-04-24T03:55:18;18;17;14
24012;PMS7003;12220;50.194;18.948;2023-04-24T03:57:29;17;16;12
24012;PMS7003;12220;50.194;18.948;2023-04-24T03:59:30;16;15;13
24012;PMS7003;12220;50.194;18.948;2023-04-24T04:01:31;18;17;12
24012;PMS7003;12220;50.194;18.948;2023-04-24T04:03:36;20;17;13
24012;PMS7003;12220;50.194;18.948;2023-04-24T04:05:44;19;18;10
24012;PMS7003;12220;50.194;18.948;2023-04-24T04:07:45;18;15;11
24012;PMS7003;12220;50.194;18.948;2023-04-24T04:09:46;15;14;12
24012;PMS7003;12220;50.194;18.948;2023-04-24T04:11:48;12;12;9
24012;PMS7003;12220;50.194;18.948;2023-04-24T04:13:59;15;15;11
24012;PMS7003;12220;50.194;18.948;2023-04-24T04:16:00;14;13;10
24012;PMS7003;12220;50.194;18.948;2023-04-24T04:18:01;17;14;11
24012;PMS7003;12220;50.194;18.948;2023-04-24T04:20:03;14;14;10
24012;PMS7003;12220;50.194;18.948;2023-04-24T04:22:14;15;14;13
24012;PMS7003;12220;50.194;18.948;2023-04-24T04:24:15;12;12;9
24012;PMS7003;12220;50.194;18.948;2023-04-24T04:26:17;14;12;9
24012;PMS7003;12220;50.194;18.948;2023-04-24T04:28:21;15;15;10
24012;PMS7003;12220;50.194;18.948;2023-04-24T04:30:29;17;13;11
24012;PMS7003;12220;50.194;18.948;2023-04-24T04:32:33;14;14;10
24012;PMS7003;12220;50.194;18.948;2023-04-24T04:34:35;14;13;11
24012;PMS7003;12220;50.194;18.948;2023-04-24T04:36:38;19;17;13
24012;PMS7003;12220;50.194;18.948;2023-04-24T04:38:44;13;13;11
24012;PMS7003;12220;50.194;18.948;2023-04-24T04:40:47;15;15;13
24012;PMS7003;12220;50.194;18.948;2023-04-24T04:42:51;14;14;11
24012;PMS7003;12220;50.194;18.948;2023-04-24T04:44:53;19;13;11
24012;PMS7003;12220;50.194;18.948;2023-04-24T04:46:59;21;18;13
24012;PMS7003;12220;50.194;18.948;2023-04-24T04:49:01;16;15;12
24012;PMS7003;12220;50.194;18.948;2023-04-24T04:51:03;11;11;10
24012;PMS7003;12220;50.194;18.948;2023-04-24T04:53:05;14;12;10
24012;PMS7003;12220;50.194;18.948;2023-04-24T04:55:14;12;12;10
24012;PMS7003;12220;50.194;18.948;2023-04-24T04:57:15;11;11;10
24012;PMS7003;12220;50.194;18.948;2023-04-24T04:59:16;13;13;11
24012;PMS7003;12220;50.194;18.948;2023-04-24T05:01:18;18;15;12
24012;PMS7003;12220;50.194;18.948;2023-04-24T05:03:29;13;13;11
24012;PMS7003;12220;50.194;18.948;2023-04-24T05:05:31;10;10;8
24012;PMS7003;12220;50.194;18.948;2023-04-24T05:07:35;16;16;12
24012;PMS7003;12220;50.194;18.948;2023-04-24T05:09:37;15;14;10
24012;PMS7003;12220;50.194;18.948;2023-04-24T05:11:43;16;14;12
24012;PMS7003;12220;50.194;18.948;2023-04-24T05:13:45;15;11;10
24012;PMS7003;12220;50.194;18.948;2023-04-24T05:15:46;14;14;11
24012;PMS7003;12220;50.194;18.948;2023-04-24T05:17:48;11;11;11
24012;PMS7003;12220;50.194;18.948;2023-04-24T05:19:58;12;12;9
24012;PMS7003;12220;50.194;18.948;2023-04-24T05:22:03;12;12;10
24012;PMS7003;12220;50.194;18.948;2023-04-24T05:24:07;13;13;12
24012;PMS7003;12220;50.194;18.948;2023-04-24T05:26:08;15;15;12
24012;PMS7003;12220;50.194;18.948;2023-04-24T05:28:13;14;10;8
24012;PMS7003;12220;50.194;18.948;2023-04-24T05:30:16;10;10;7
24012;PMS7003;12220;50.194;18.948;2023-04-24T05:32:17;15;13;12
24012;PMS7003;12220;50.194;18.948;2023-04-24T05:34:21;10;10;8
24012;PMS7003;12220;50.194;18.948;2023-04-24T05:36:28;10;10;8
24012;PMS7003;12220;50.194;18.948;2023-04-24T05:38:31;12;10;8
24012;PMS7003;12220;50.194;18.948;2023-04-24T05:40:32;16;15;12
24012;PMS7003;12220;50.194;18.948;2023-04-24T05:42:34;12;12;10
24012;PMS7003;12220;50.194;18.948;2023-04-24T05:44:43;14;11;10
24012;PMS7003;12220;50.194;18.948;2023-04-24T05:46:45;14;14;11
24012;PMS7003;12220;50.194;18.948;2023-04-24T05:48:46;13;12;11
24012;PMS7003;12220;50.194;18.948;2023-04-24T05:50:48;10;10;8
24012;PMS7003;12220;50.194;18.948;2023-04-24T05:52:58;13;11;8
24012;PMS7003;12220;50.194;18.948;2023-04-24T05:55:02;14;10;8
24012;PMS7003;12220;50.194;18.948;2023-04-24T05:57:05;9;9;7
24012;PMS7003;12220;50.194;18.948;2023-04-24T05:59:08;10;10;9
24012;PMS7003;12220;50.194;18.948;2023-04-24T06:01:13;11;10;9
24012;PMS7003;12220;50.194;18.948;2023-04-24T06:03:15;11;10;8
24012;PMS7003;12220;50.194;18.948;2023-04-24T06:05:16;20;11;10
24012;PMS7003;12220;50.194;18.948;2023-04-24T06:07:18;10;10;9
24012;PMS7003;12220;50.194;18.948;2023-04-24T06:09:28;14;11;10
24012;PMS7003;12220;50.194;18.948;2023-04-24T06:11:30;9;9;8
24012;PMS7003;12220;50.194;18.948;2023-04-24T06:13:31;10;9;8
24012;PMS7003;12220;50.194;18.948;2023-04-24T06:15:32;13;13;11
24012;PMS7003;12220;50.194;18.948;2023-04-24T06:17:43;18;13;11
24012;PMS7003;12220;50.194;18.948;2023-04-24T06:19:44;13;13;11
24012;PMS7003;12220;50.194;18.948;2023-04-24T06:21:46;11;11;9
24012;PMS7003;12220;50.194;18.948;2023-04-24T06:23:47;14;14;13
24012;PMS7003;12220;50.194;18.948;2023-04-24T06:25:58;15;14;11
24012;PMS7003;12220;50.194;18.948;2023-04-24T06:28:00;10;8;8
24012;PMS7003;12220;50.194;18.948;2023-04-24T06:30:03;10;9;8
24012;PMS7003;12220;50.194;18.948;2023-04-24T06:32:04;11;10;9
24012;PMS7003;12220;50.194;18.948;2023-04-24T06:34:13;8;8;6
24012;PMS7003;12220;50.194;18.948;2023-04-24T06:36:14;10;9;8
24012;PMS7003;12220;50.194;18.948;2023-04-24T06:38:16;11;6;6
24012;PMS7003;12220;50.194;18.948;2023-04-24T06:40:18;7;7;7
24012;PMS7003;12220;50.194;18.948;2023-04-24T06:42:28;13;10;8
24012;PMS7003;12220;50.194;18.948;2023-04-24T06:44:29;9;9;8
24012;PMS7003;12220;50.194;18.948;2023-04-24T06:46:30;9;7;6
24012;PMS7003;12220;50.194;18.948;2023-04-24T06:48:32;8;8;7
24012;PMS7003;12220;50.194;18.948;2023-04-24T06:50:43;11;11;7
24012;PMS7003;12220;50.194;18.948;2023-04-24T06:52:44;13;10;8
24012;PMS7003;12220;50.194;18.948;2023-04-24T06:54:46;9;9;7
24012;PMS7003;12220;50.194;18.948;2023-04-24T06:56:48;7;7;6
24012;PMS7003;12220;50.194;18.948;2023-04-24T06:58:58;9;9;8
24012;PMS7003;12220;50.194;18.948;2023-04-24T07:00:59;9;9;9
24012;PMS7003;12220;50.194;18.948;2023-04-24T07:03:00;10;10;8
24012;PMS7003;12220;50.194;18.948;2023-04-24T07:05:03;10;10;8
24012;PMS7003;12220;50.194;18.948;2023-04-24T07:07:13;8;8;8
24012;PMS7003;12220;50.194;18.948;2023-04-24T07:09:15;8;7;7
24012;PMS7003;12220;50.194;18.948;2023-04-24T07:11:19;10;10;9
24012;PMS7003;12220;50.194;18.948;2023-04-24T07:13:21;7;7;7
24012;PMS7003;12220;50.194;18.948;2023-04-24T07:15:27;9;9;7
24012;PMS7003;12220;50.194;18.948;2023-04-24T07:17:29;8;7;7
24012;PMS7003;12220;50.194;18.948;2023-04-24T07:19:30;9;9;8
24012;PMS7003;12220;50.194;18.948;2023-04-24T07:21:32;8;8;8
24012;PMS7003;12220;50.194;18.948;2023-04-24T07:23:42;7;7;6
24012;PMS7003;12220;50.194;18.948;2023-04-24T07:25:44;10;10;8
24012;PMS7003;12220;50.194;18.948;2023-04-24T07:27:45;8;7;6
24012;PMS7003;12220;50.194;18.948;2023-04-24T07:29:47;11;10;9
24012;PMS7003;12220;50.194;18.948;2023-04-24T07:31:57;6;6;6
24012;PMS7003;12220;50.194;18.948;2023-04-24T07:33:59;9;9;7
24012;PMS7003;12220;50.194;18.948;2023-04-24T07:36:03;11;8;8
24012;PMS7003;12220;50.194;18.948;2023-04-24T07:38:05;6;6;5
24012;PMS7003;12220;50.194;18.948;2023-04-24T07:40:12;8;6;6
24012;PMS7003;12220;50.194;18.948;2023-04-24T07:42:17;8;8;7
24012;PMS7003;12220;50.194;18.948;2023-04-24T07:44:18;12;10;9
24012;PMS7003;12220;50.194;18.948;2023-04-24T07:46:20;5;5;4
24012;PMS7003;12220;50.194;18.948;2023-04-24T07:48:27;8;8;7
24012;PMS7003;12220;50.194;18.948;2023-04-24T07:50:28;9;9;7
24012;PMS7003;12220;50.194;18.948;2023-04-24T07:52:33;8;6;6
24012;PMS7003;12220;50.194;18.948;2023-04-24T07:54:35;9;9;9
24012;PMS7003;12220;50.194;18.948;2023-04-24T07:56:42;7;6;5
24012;PMS7003;12220;50.194;18.948;2023-04-24T07:58:44;8;8;6
24012;PMS7003;12220;50.194;18.948;2023-04-24T08:00:46;8;8;7
24012;PMS7003;12220;50.194;18.948;2023-04-24T08:02:47;4;4;4
24012;PMS7003;12220;50.194;18.948;2023-04-24T08:04:57;8;8;8
24012;PMS7003;12220;50.194;18.948;2023-04-24T08:06:58;8;8;7
24012;PMS7003;12220;50.194;18.948;2023-04-24T08:09:00;9;9;8
24012;PMS7003;12220;50.194;18.948;2023-04-24T08:11:01;5;5;5
24012;PMS7003;12220;50.194;18.948;2023-04-24T08:13:12;10;10;9
24012;PMS7003;12220;50.194;18.948;2023-04-24T08:15:13;11;10;8
24012;PMS7003;12220;50.194;18.948;2023-04-24T08:17:14;11;6;6
24012;PMS7003;12220;50.194;18.948;2023-04-24T08:19:17;10;6;6
24012;PMS7003;12220;50.194;18.948;2023-04-24T08:21:26;9;8;8
24012;PMS7003;12220;50.194;18.948;2023-04-24T08:23:28;8;8;7
24012;PMS7003;12220;50.194;18.948;2023-04-24T08:25:30;8;8;7
24012;PMS7003;12220;50.194;18.948;2023-04-24T08:27:31;6;6;5
24012;PMS7003;12220;50.194;18.948;2023-04-24T08:29:44;9;9;7
24012;PMS7003;12220;50.194;18.948;2023-04-24T08:31:46;10;10;9
24012;PMS7003;12220;50.194;18.948;2023-04-24T08:33:47;10;9;7
24012;PMS7003;12220;50.194;18.948;2023-04-24T08:35:48;7;6;5
24012;PMS7003;12220;50.194;18.948;2023-04-24T08:37:56;5;5;4
24012;PMS7003;12220;50.194;18.948;2023-04-24T08:39:57;6;6;6
24012;PMS7003;12220;50.194;18.948;2023-04-24T08:41:59;8;8;7
24012;PMS7003;12220;50.194;18.948;2023-04-24T08:44:08;9;8;8
24012;PMS7003;12220;50.194;18.948;2023-04-24T08:46:11;7;7;7
24012;PMS7003;12220;50.194;18.948;2023-04-24T08:48:17;9;9;7
24012;PMS7003;12220;50.194;18.948;2023-04-24T08:50:19;7;7;6
24012;PMS7003;12220;50.194;18.948;2023-04-24T08:52:21;9;6;6
24012;PMS7003;12220;50.194;18.948;2023-04-24T08:54:26;8;8;7
24012;PMS7003;12220;50.194;18.948;2023-04-24T08:56:27;6;6;6
24012;PMS7003;12220;50.194;18.948;2023-04-24T08:58:31;8;6;6
24012;PMS7003;12220;50.194;18.948;2023-04-24T09:00:33;6;5;4
24012;PMS7003;12220;50.194;18.948;2023-04-24T09:02:41;9;9;9
24012;PMS7003;12220;50.194;18.948;2023-04-24T09:04:44;8;8;8
24012;PMS7003;12220;50.194;18.948;2023-04-24T09:08:56;7;7;6
24012;PMS7003;12220;50.194;18.948;2023-04-24T09:11:01;12;10;8
24012;PMS7003;12220;50.194;18.948;2023-04-24T09:13:04;7;7;6
24012;PMS7003;12220;50.194;18.948;2023-04-24T09:15:06;6;6;6
24012;PMS7003;12220;50.194;18.948;2023-04-24T09:17:09;6;6;5
24012;PMS7003;12220;50.194;18.948;2023-04-24T09:19:10;7;7;6
24012;PMS7003;12220;50.194;18.948;2023-04-24T09:21:12;11;11;9
24012;PMS7003;12220;50.194;18.948;2023-04-24T09:23:17;10;10;8
24012;PMS7003;12220;50.194;18.948;2023-04-24T09:25:18;10;7;7
24012;PMS7003;12220;50.194;18.948;2023-04-24T09:27:25;12;11;10
24012;PMS7003;12220;50.194;18.948;2023-04-24T09:29:29;10;7;7
24012;PMS7003;12220;50.194;18.948;2023-04-24T09:31:33;9;9;8
24012;PMS7003;12220;50.194;18.948;2023-04-24T09:33:35;6;6;5
24012;PMS7003;12220;50.194;18.948;2023-04-24T09:35:41;9;9;8
24012;PMS7003;12220;50.194;18.948;2023-04-24T09:37:48;12;12;11
24012;PMS7003;12220;50.194;18.948;2023-04-24T09:40:06;8;8;6
24012;PMS7003;12220;50.194;18.948;2023-04-24T09:42:02;6;6;5
24012;PMS7003;12220;50.194;18.948;2023-04-24T09:46:16;7;7;7
24012;PMS7003;12220;50.194;18.948;2023-04-24T09:48:19;7;7;7
24012;PMS7003;12220;50.194;18.948;2023-04-24T09:50:26;7;6;6
24012;PMS7003;12220;50.194;18.948;2023-04-24T09:52:28;11;11;9
24012;PMS7003;12220;50.194;18.948;2023-04-24T09:54:31;8;8;7
24012;PMS7003;12220;50.194;18.948;2023-04-24T09:56:33;12;9;9
24012;PMS7003;12220;50.194;18.948;2023-04-24T09:58:35;8;8;7
24012;PMS7003;12220;50.194;18.948;2023-04-24T10:00:54;10;9;8
24012;PMS7003;12220;50.194;18.948;2023-04-24T10:02:57;6;6;5
24012;PMS7003;12220;50.194;18.948;2023-04-24T10:05:10;14;13;11
24012;PMS7003;12220;50.194;18.948;2023-04-24T10:07:12;10;10;9
24012;PMS7003;12220;50.194;18.948;2023-04-24T10:09:16;9;9;7
24012;PMS7003;12220;50.194;18.948;2023-04-24T10:11:19;7;7;6
24012;PMS7003;12220;50.194;18.948;2023-04-24T10:13:27;11;11;10
24012;PMS7003;12220;50.194;18.948;2023-04-24T10:15:29;9;9;9
24012;PMS7003;12220;50.194;18.948;2023-04-24T10:17:31;10;10;9
24012;PMS7003;12220;50.194;18.948;2023-04-24T10:19:33;10;10;9
24012;PMS7003;12220;50.194;18.948;2023-04-24T10:21:39;15;11;9
24012;PMS7003;12220;50.194;18.948;2023-04-24T10:23:48;8;8;7
24012;PMS7003;12220;50.194;18.948;2023-04-24T10:25:50;9;9;8
24012;PMS7003;12220;50.194;18.948;2023-04-24T10:27:53;11;9;8
24012;PMS7003;12220;50.194;18.948;2023-04-24T10:30:00;11;11;9
24012;PMS7003;12220;50.194;18.948;2023-04-24T10:32:03;10;10;8
24012;PMS7003;12220;50.194;18.948;2023-04-24T10:34:10;8;8;7
24012;PMS7003;12220;50.194;18.948;2023-04-24T10:36:12;11;11;9
24012;PMS7003;12220;50.194;18.948;2023-04-24T10:38:21;11;9;9
24012;PMS7003;12220;50.194;18.948;2023-04-24T10:40:36;14;13;11
24012;PMS7003;12220;50.194;18.948;2023-04-24T10:42:41;10;10;9
24012;PMS7003;12220;50.194;18.948;2023-04-24T10:44:43;10;10;9
24012;PMS7003;12220;50.194;18.948;2023-04-24T10:46:52;12;12;11
24012;PMS7003;12220;50.194;18.948;2023-04-24T10:48:56;14;14;12
24012;PMS7003;12220;50.194;18.948;2023-04-24T10:51:00;13;13;11
24012;PMS7003;12220;50.194;18.948;2023-04-24T10:53:11;9;9;8
24012;PMS7003;12220;50.194;18.948;2023-04-24T10:55:16;8;8;7
24012;PMS7003;12220;50.194;18.948;2023-04-24T10:57:25;9;9;8
24012;PMS7003;12220;50.194;18.948;2023-04-24T10:59:34;11;11;9
24012;PMS7003;12220;50.194;18.948;2023-04-24T11:01:38;7;7;7
24012;PMS7003;12220;50.194;18.948;2023-04-24T11:03:39;9;9;9
24012;PMS7003;12220;50.194;18.948;2023-04-24T11:05:51;10;10;9
24012;PMS7003;12220;50.194;18.948;2023-04-24T11:10:24;12;12;10
24012;PMS7003;12220;50.194;18.948;2023-04-24T11:12:27;12;10;8
24012;PMS7003;12220;50.194;18.948;2023-04-24T11:14:28;10;7;6
24012;PMS7003;12220;50.194;18.948;2023-04-24T11:16:30;9;9;8
24012;PMS7003;12220;50.194;18.948;2023-04-24T11:18:39;7;7;6
24012;PMS7003;12220;50.194;18.948;2023-04-24T11:20:46;7;7;7
24012;PMS7003;12220;50.194;18.948;2023-04-24T11:22:47;7;7;6
24012;PMS7003;12220;50.194;18.948;2023-04-24T11:24:49;9;9;8
24012;PMS7003;12220;50.194;18.948;2023-04-24T11:29:08;7;7;7
24012;PMS7003;12220;50.194;18.948;2023-04-24T11:33:39;10;10;8
24012;PMS7003;12220;50.194;18.948;2023-04-24T11:35:40;8;8;6
24012;PMS7003;12220;50.194;18.948;2023-04-24T11:37:46;11;11;8
24012;PMS7003;12220;50.194;18.948;2023-04-24T11:39:52;12;10;8
24012;PMS7003;12220;50.194;18.948;2023-04-24T11:42:01;9;7;7
24012;PMS7003;12220;50.194;18.948;2023-04-24T11:44:15;11;11;9
24012;PMS7003;12220;50.194;18.948;2023-04-24T11:46:21;12;12;11
24012;PMS7003;12220;50.194;18.948;2023-04-24T11:48:23;12;12;9
24012;PMS7003;12220;50.194;18.948;2023-04-24T11:50:25;11;11;9
24012;PMS7003;12220;50.194;18.948;2023-04-24T11:52:30;10;10;8
24012;PMS7003;12220;50.194;18.948;2023-04-24T11:54:32;9;9;8
24012;PMS7003;12220;50.194;18.948;2023-04-24T11:56:33;15;15;12
24012;PMS7003;12220;50.194;18.948;2023-04-24T11:58:35;14;14;10
24012;PMS7003;12220;50.194;18.948;2023-04-24T12:00:45;14;12;10
24012;PMS7003;12220;50.194;18.948;2023-04-24T12:02:47;12;12;10
24012;PMS7003;12220;50.194;18.948;2023-04-24T12:04:50;13;12;10
24012;PMS7003;12220;50.194;18.948;2023-04-24T12:09:05;14;14;13
24012;PMS7003;12220;50.194;18.948;2023-04-24T12:11:09;15;15;11
24012;PMS7003;12220;50.194;18.948;2023-04-24T12:13:10;10;10;9
24012;PMS7003;12220;50.194;18.948;2023-04-24T12:15:12;13;13;11
24012;PMS7003;12220;50.194;18.948;2023-04-24T12:17:15;13;13;11
24012;PMS7003;12220;50.194;18.948;2023-04-24T12:19:20;11;11;8
24012;PMS7003;12220;50.194;18.948;2023-04-24T12:21:26;11;10;9
24012;PMS7003;12220;50.194;18.948;2023-04-24T12:23:34;12;12;11
24012;PMS7003;12220;50.194;18.948;2023-04-24T12:25:39;13;13;12
24012;PMS7003;12220;50.194;18.948;2023-04-24T12:27:41;10;10;9
24012;PMS7003;12220;50.194;18.948;2023-04-24T12:31:56;11;11;10
24012;PMS7003;12220;50.194;18.948;2023-04-24T12:34:00;13;13;12
24012;PMS7003;12220;50.194;18.948;2023-04-24T12:36:10;11;11;7
24012;PMS7003;12220;50.194;18.948;2023-04-24T12:38:13;11;11;9
24012;PMS7003;12220;50.194;18.948;2023-04-24T12:40:19;8;8;7
24012;PMS7003;12220;50.194;18.948;2023-04-24T12:42:30;7;7;7
24012;PMS7003;12220;50.194;18.948;2023-04-24T12:44:32;10;9;8
24012;PMS7003;12220;50.194;18.948;2023-04-24T12:46:35;7;7;6
24012;PMS7003;12220;50.194;18.948;2023-04-24T12:48:36;8;8;8
24012;PMS7003;12220;50.194;18.948;2023-04-24T12:50:38;8;8;8
24012;PMS7003;12220;50.194;18.948;2023-04-24T12:52:41;9;9;8
24012;PMS7003;12220;50.194;18.948;2023-04-24T12:54:44;7;7;7
24012;PMS7003;12220;50.194;18.948;2023-04-24T12:56:45;7;7;6
24012;PMS7003;12220;50.194;18.948;2023-04-24T12:58:46;11;8;7
24012;PMS7003;12220;50.194;18.948;2023-04-24T13:00:56;9;9;8
24012;PMS7003;12220;50.194;18.948;2023-04-24T13:03:01;7;7;7
24012;PMS7003;12220;50.194;18.948;2023-04-24T13:05:06;6;5;4
24012;PMS7003;12220;50.194;18.948;2023-04-24T13:07:08;10;10;9
24012;PMS7003;12220;50.194;18.948;2023-04-24T13:09:11;9;9;7
24012;PMS7003;12220;50.194;18.948;2023-04-24T13:11:15;6;6;5
24012;PMS7003;12220;50.194;18.948;2023-04-24T13:13:19;10;10;9
24012;PMS7003;12220;50.194;18.948;2023-04-24T13:15:20;9;8;7
24012;PMS7003;12220;50.194;18.948;2023-04-24T13:17:26;10;10;9
24012;PMS7003;12220;50.194;18.948;2023-04-24T13:19:27;7;7;6
24012;PMS7003;12220;50.194;18.948;2023-04-24T13:21:29;11;8;7
24012;PMS7003;12220;50.194;18.948;2023-04-24T13:23:31;7;7;6
24012;PMS7003;12220;50.194;18.948;2023-04-24T13:25:40;8;8;7
24012;PMS7003;12220;50.194;18.948;2023-04-24T13:27:42;6;6;6
24012;PMS7003;12220;50.194;18.948;2023-04-24T13:29:44;10;10;8
24012;PMS7003;12220;50.194;18.948;2023-04-24T13:31:46;11;9;8
24012;PMS7003;12220;50.194;18.948;2023-04-24T13:33:55;11;11;10